Walworth, Wisconsin
Current Conditions -  °F | °C
As of 10:35 AM on Thursday 29 Jan 2015 (Local Time) from KBUU Reporting Station
Overcast Overcast  
Wind Chill: 19°   Ceiling: 1800
Heat Index: 31°   Visibility: 10mi
Dew Point: 25°   Wind: 18mph
Humidity: 79%   Direction: 330°NNW
Pressure: 29.91"   Gusts: 26mph
Location:  42.53°N, 88.6°W
Report Text: KBUU 291635Z AUTO 33016G23KT 10SM OVC018 M01/M04 A2991 RMK AO2 T10071040
Loading
Personal Weather Stations






























Interactive Weather Map New forecast layout! Learn more

10-Day Weather Forecast

Advertisements
Track Severe Weather on mobile